createdAt,value
2023-01-22T00:00:10.211Z,-0.96
2023-01-22T00:01:12.997Z,-0.98
2023-01-22T00:02:14.771Z,-1.02
2023-01-22T00:03:16.544Z,-1.04
2023-01-22T00:04:18.382Z,-1.05
2023-01-22T00:05:21.378Z,-1.06
2023-01-22T00:06:24.037Z,-1.09
2023-01-22T00:07:25.847Z,-1.08
2023-01-22T00:08:27.719Z,-1.05
2023-01-22T00:09:29.547Z,-0.95
2023-01-22T00:10:32.677Z,-0.87
2023-01-22T00:11:34.457Z,-0.79
2023-01-22T00:12:36.303Z,-0.77
2023-01-22T00:13:38.208Z,-0.78
2023-01-22T00:14:41.005Z,-0.82
2023-01-22T00:15:42.817Z,-0.81
2023-01-22T00:16:44.723Z,-0.81
2023-01-22T00:17:46.589Z,-0.76
2023-01-22T00:18:48.849Z,-0.71
2023-01-22T00:19:50.838Z,-0.71
2023-01-22T00:20:53.749Z,-0.68
2023-01-22T00:21:55.590Z,-0.63
2023-01-22T00:22:57.442Z,-0.58
2023-01-22T00:23:59.160Z,-0.55
2023-01-22T00:25:00.963Z,-0.56
2023-01-22T00:26:04.071Z,-0.54
2023-01-22T00:27:06.500Z,-0.52
2023-01-22T00:28:08.757Z,-0.50
2023-01-22T00:29:10.607Z,-0.51
2023-01-22T00:30:12.535Z,-0.51
2023-01-22T00:31:15.565Z,-0.49
2023-01-22T00:32:17.444Z,-0.49
2023-01-22T00:33:19.273Z,-0.46
2023-01-22T00:34:21.006Z,-0.42
2023-01-22T00:35:22.846Z,-0.39
2023-01-22T00:36:24.668Z,-0.38
2023-01-22T00:37:26.558Z,-0.35
2023-01-22T00:38:28.363Z,-0.34
2023-01-22T00:39:30.118Z,-0.33
2023-01-22T00:40:31.927Z,-0.31
2023-01-22T00:41:33.775Z,-0.29
2023-01-22T00:42:35.573Z,-0.28
2023-01-22T00:43:41.169Z,-0.27
2023-01-22T00:44:43.122Z,-0.27
2023-01-22T00:45:45.023Z,-0.29
2023-01-22T00:46:47.163Z,-0.30
2023-01-22T00:47:48.962Z,-0.35
2023-01-22T00:48:51.426Z,-0.33
2023-01-22T00:49:53.272Z,-0.31
2023-01-22T00:50:55.148Z,-0.28
2023-01-22T00:51:57.170Z,-0.24
2023-01-22T00:52:58.922Z,-0.22
2023-01-22T00:54:00.688Z,-0.20
2023-01-22T00:55:02.450Z,-0.17
2023-01-22T00:56:04.480Z,-0.18
2023-01-22T00:57:06.306Z,-0.18
2023-01-22T00:58:08.116Z,-0.17
2023-01-22T00:59:10.861Z,-0.24
2023-01-22T01:00:15.306Z,-0.26
2023-01-22T01:01:17.544Z,-0.26
2023-01-22T01:02:19.558Z,-0.25
2023-01-22T01:03:27.804Z,-0.25
2023-01-22T01:04:29.610Z,-0.30
2023-01-22T01:05:31.395Z,-0.30
2023-01-22T01:06:33.523Z,-0.27
2023-01-22T01:07:35.311Z,-0.23
2023-01-22T01:08:38.965Z,-0.23
2023-01-22T01:09:40.969Z,-0.21
2023-01-22T01:10:42.780Z,-0.20
2023-01-22T01:11:44.566Z,-0.25
2023-01-22T01:12:46.435Z,-0.27
2023-01-22T01:13:48.912Z,-0.27
2023-01-22T01:14:50.908Z,-0.27
2023-01-22T01:16:00.672Z,-0.28
2023-01-22T01:17:02.460Z,-0.25
2023-01-22T01:18:04.542Z,-0.20
2023-01-22T01:19:07.757Z,-0.18
2023-01-22T01:20:09.986Z,-0.17
2023-01-22T01:21:12.487Z,-0.16
2023-01-22T01:22:14.313Z,-0.14
2023-01-22T01:23:16.131Z,-0.12
2023-01-22T01:24:17.850Z,-0.11
2023-01-22T01:25:19.648Z,-0.13
2023-01-22T01:26:21.561Z,-0.14
2023-01-22T01:27:23.295Z,-0.16
2023-01-22T01:28:25.621Z,-0.16
2023-01-22T01:29:27.520Z,-0.17
2023-01-22T01:30:29.364Z,-0.17
2023-01-22T01:31:31.280Z,-0.18
2023-01-22T01:32:33.088Z,-0.18
2023-01-22T01:33:34.999Z,-0.21
2023-01-22T01:34:36.858Z,-0.21
2023-01-22T01:35:38.710Z,-0.18
2023-01-22T01:36:49.432Z,-0.21
2023-01-22T01:37:52.395Z,-0.19
2023-01-22T01:38:55.125Z,-0.17
2023-01-22T01:39:56.903Z,-0.17
2023-01-22T01:40:58.801Z,-0.16
2023-01-22T01:42:00.730Z,-0.16
2023-01-22T01:43:02.512Z,-0.15
2023-01-22T01:44:15.239Z,-0.12
2023-01-22T01:45:25.633Z,-0.12
2023-01-22T01:46:27.584Z,-0.13
2023-01-22T01:47:34.817Z,-0.12
2023-01-22T01:48:42.110Z,-0.11
2023-01-22T01:49:49.141Z,-0.09
2023-01-22T01:51:07.885Z,-0.09
2023-01-22T01:52:11.613Z,-0.07
2023-01-22T01:53:13.741Z,-0.06
2023-01-22T01:54:16.287Z,-0.04
2023-01-22T01:55:21.972Z,-0.03
2023-01-22T01:56:27.037Z,-0.05
2023-01-22T01:57:31.681Z,-0.05
2023-01-22T01:58:34.710Z,-0.09
2023-01-22T01:59:37.176Z,-0.10
2023-01-22T02:00:41.522Z,-0.10
2023-01-22T02:01:45.202Z,-0.09
2023-01-22T02:02:47.195Z,-0.10
2023-01-22T02:03:49.438Z,-0.12
2023-01-22T02:04:51.730Z,-0.18
2023-01-22T02:05:53.549Z,-0.22
2023-01-22T02:06:55.409Z,-0.22
2023-01-22T02:07:57.255Z,-0.21
2023-01-22T02:09:00.843Z,-0.24
2023-01-22T02:10:06.424Z,-0.26
2023-01-22T02:11:09.012Z,-0.25
2023-01-22T02:12:10.952Z,-0.24
2023-01-22T02:13:16.053Z,-0.25
2023-01-22T02:14:20.432Z,-0.25
2023-01-22T02:15:22.297Z,-0.26
2023-01-22T02:16:24.260Z,-0.27
2023-01-22T02:17:26.093Z,-0.28
2023-01-22T02:18:28.302Z,-0.26
2023-01-22T02:19:30.165Z,-0.23
2023-01-22T02:20:36.617Z,-0.21
2023-01-22T02:21:40.023Z,-0.20
2023-01-22T02:22:41.961Z,-0.18
2023-01-22T02:23:43.785Z,-0.15
2023-01-22T02:24:45.664Z,-0.15
2023-01-22T02:25:47.480Z,-0.17
2023-01-22T02:26:49.309Z,-0.18
2023-01-22T02:27:51.165Z,-0.18
2023-01-22T02:28:53.246Z,-0.18
2023-01-22T02:29:55.059Z,-0.17
2023-01-22T02:30:56.834Z,-0.14
2023-01-22T02:31:58.801Z,-0.14
2023-01-22T02:33:00.762Z,-0.11
2023-01-22T02:34:02.696Z,-0.10
2023-01-22T02:35:04.670Z,-0.09
2023-01-22T02:36:06.658Z,-0.08
2023-01-22T02:37:08.439Z,-0.08
2023-01-22T02:38:10.382Z,-0.08
2023-01-22T02:39:12.260Z,-0.07
2023-01-22T02:40:14.193Z,-0.07
2023-01-22T02:41:16.045Z,-0.06
2023-01-22T02:42:18.082Z,-0.05
2023-01-22T02:43:19.938Z,-0.04
2023-01-22T02:44:21.861Z,-0.04
2023-01-22T02:45:24.081Z,-0.05
2023-01-22T02:46:30.666Z,-0.04
2023-01-22T02:47:34.648Z,-0.03
2023-01-22T02:48:36.540Z,-0.01
2023-01-22T02:49:38.419Z,0.01
2023-01-22T02:50:40.291Z,0.00
2023-01-22T02:51:42.114Z,0.00
2023-01-22T02:52:44.047Z,0.02
2023-01-22T02:53:45.891Z,0.03
2023-01-22T02:54:47.683Z,0.03
2023-01-22T02:55:49.720Z,0.04
2023-01-22T02:56:51.638Z,0.03
2023-01-22T02:57:53.505Z,0.01
2023-01-22T02:58:56.075Z,0.00
2023-01-22T02:59:58.327Z,0.02
2023-01-22T03:01:08.234Z,0.02
2023-01-22T03:02:10.213Z,0.02
2023-01-22T03:03:15.522Z,0.03
2023-01-22T03:04:17.712Z,0.01
2023-01-22T03:05:19.507Z,0.00
2023-01-22T03:06:22.157Z,-0.04
2023-01-22T03:07:23.952Z,-0.06
2023-01-22T03:08:26.954Z,-0.11
2023-01-22T03:09:30.262Z,-0.13
2023-01-22T03:10:32.113Z,-0.14
2023-01-22T03:11:34.684Z,-0.15
2023-01-22T03:12:54.718Z,-0.15
2023-01-22T03:14:14.912Z,-0.13
2023-01-22T03:15:35.151Z,-0.09
2023-01-22T03:16:55.607Z,-0.10
2023-01-22T03:18:15.826Z,-0.07
2023-01-22T03:19:37.077Z,-0.05
2023-01-22T03:20:57.257Z,-0.03
2023-01-22T03:21:59.052Z,-0.01
2023-01-22T03:23:00.894Z,0.00
2023-01-22T03:24:02.719Z,0.02
2023-01-22T03:25:04.648Z,0.00
2023-01-22T03:26:06.552Z,0.01
2023-01-22T03:27:08.311Z,0.03
2023-01-22T03:28:16.947Z,0.03
2023-01-22T03:29:18.867Z,0.05
2023-01-22T03:30:20.723Z,0.04
2023-01-22T03:31:22.707Z,0.05
2023-01-22T03:32:24.569Z,0.04
2023-01-22T03:33:26.359Z,0.03
2023-01-22T03:34:28.371Z,-0.01
2023-01-22T03:35:31.242Z,-0.04
2023-01-22T03:36:33.146Z,-0.08
2023-01-22T03:37:34.940Z,-0.09
2023-01-22T03:38:36.738Z,-0.08
2023-01-22T03:39:39.053Z,-0.07
2023-01-22T03:40:40.906Z,-0.04
2023-01-22T03:41:42.759Z,-0.04
2023-01-22T03:42:44.570Z,-0.10
2023-01-22T03:43:46.677Z,-0.13
2023-01-22T03:44:48.567Z,-0.13
2023-01-22T03:45:50.403Z,-0.14
2023-01-22T03:46:52.335Z,-0.15
2023-01-22T03:47:54.461Z,-0.18
2023-01-22T03:48:56.346Z,-0.19
2023-01-22T03:49:58.244Z,-0.20
2023-01-22T03:51:13.729Z,-0.21
2023-01-22T03:52:15.575Z,-0.19
2023-01-22T03:53:17.431Z,-0.21
2023-01-22T03:54:19.331Z,-0.24
2023-01-22T03:55:21.157Z,-0.23
2023-01-22T03:56:23.792Z,-0.21
2023-01-22T03:57:25.645Z,-0.18
2023-01-22T03:58:27.623Z,-0.15
2023-01-22T03:59:29.494Z,-0.12
2023-01-22T04:00:34.312Z,-0.10
2023-01-22T04:01:36.355Z,-0.08
2023-01-22T04:02:38.249Z,-0.06
2023-01-22T04:03:40.129Z,-0.05
2023-01-22T04:04:44.881Z,-0.05
2023-01-22T04:05:46.720Z,-0.04
2023-01-22T04:06:48.541Z,-0.01
2023-01-22T04:07:50.940Z,-0.01
2023-01-22T04:08:54.858Z,-0.01
2023-01-22T04:09:56.658Z,0.00
2023-01-22T04:10:58.948Z,0.02
2023-01-22T04:12:00.772Z,0.03
2023-01-22T04:13:02.577Z,0.00
2023-01-22T04:14:04.452Z,-0.03
2023-01-22T04:15:06.706Z,-0.05
2023-01-22T04:16:09.201Z,-0.06
2023-01-22T04:17:11.006Z,-0.07
2023-01-22T04:18:13.311Z,-0.06
2023-01-22T04:19:15.089Z,-0.05
2023-01-22T04:20:17.342Z,-0.05
2023-01-22T04:21:19.338Z,-0.04
2023-01-22T04:22:21.060Z,-0.02
2023-01-22T04:23:23.394Z,-0.02
2023-01-22T04:24:25.238Z,-0.03
2023-01-22T04:25:27.068Z,-0.03
2023-01-22T04:26:29.080Z,-0.05
2023-01-22T04:27:30.899Z,-0.04
2023-01-22T04:28:32.658Z,-0.02
2023-01-22T04:29:34.430Z,-0.02
2023-01-22T04:30:36.319Z,-0.01
2023-01-22T04:31:38.356Z,0.01
2023-01-22T04:32:40.324Z,0.00
2023-01-22T04:33:42.150Z,-0.07
2023-01-22T04:34:44.588Z,-0.10
2023-01-22T04:35:49.686Z,-0.08
2023-01-22T04:36:51.539Z,-0.09
2023-01-22T04:37:53.383Z,-0.08
2023-01-22T04:38:55.220Z,-0.09
2023-01-22T04:39:57.047Z,-0.08
2023-01-22T04:40:58.940Z,-0.09
2023-01-22T04:42:00.835Z,-0.10
2023-01-22T04:43:03.278Z,-0.07
2023-01-22T04:44:05.162Z,-0.05
2023-01-22T04:45:07.340Z,-0.08
2023-01-22T04:46:09.293Z,-0.11
2023-01-22T04:47:11.221Z,-0.12
2023-01-22T04:48:14.262Z,-0.12
2023-01-22T04:49:16.043Z,-0.13
2023-01-22T04:50:19.830Z,-0.16
2023-01-22T04:51:21.889Z,-0.19
2023-01-22T04:52:23.763Z,-0.19
2023-01-22T04:53:25.610Z,-0.20
2023-01-22T04:54:27.449Z,-0.19
2023-01-22T04:55:29.972Z,-0.21
2023-01-22T04:56:31.813Z,-0.25
2023-01-22T04:57:33.681Z,-0.29
2023-01-22T04:58:35.517Z,-0.26
2023-01-22T04:59:37.316Z,-0.23
2023-01-22T05:00:39.109Z,-0.25
2023-01-22T05:01:40.885Z,-0.27
2023-01-22T05:02:42.839Z,-0.29
2023-01-22T05:03:44.739Z,-0.28
2023-01-22T05:04:46.717Z,-0.31
2023-01-22T05:05:48.603Z,-0.32
2023-01-22T05:06:50.638Z,-0.31
2023-01-22T05:07:52.583Z,-0.27
2023-01-22T05:08:54.438Z,-0.28
2023-01-22T05:09:56.163Z,-0.29
2023-01-22T05:11:01.612Z,-0.32
2023-01-22T05:12:03.502Z,-0.32
2023-01-22T05:13:06.068Z,-0.29
2023-01-22T05:14:10.391Z,-0.27
2023-01-22T05:15:23.497Z,-0.23
2023-01-22T05:16:26.097Z,-0.24
2023-01-22T05:17:27.859Z,-0.23
2023-01-22T05:18:29.646Z,-0.22
2023-01-22T05:19:31.476Z,-0.17
2023-01-22T05:20:33.308Z,-0.16
2023-01-22T05:21:35.182Z,-0.12
2023-01-22T05:22:37.046Z,-0.11
2023-01-22T05:23:38.823Z,-0.09
2023-01-22T05:24:40.731Z,-0.09
2023-01-22T05:25:47.240Z,-0.07
2023-01-22T05:26:49.049Z,-0.07
2023-01-22T05:27:50.871Z,-0.07
2023-01-22T05:28:52.697Z,-0.05
2023-01-22T05:29:54.520Z,-0.03
2023-01-22T05:30:56.553Z,-0.02
2023-01-22T05:31:58.899Z,-0.02
2023-01-22T05:33:00.710Z,-0.01
2023-01-22T05:34:02.829Z,0.01
2023-01-22T05:35:05.112Z,0.03
2023-01-22T05:36:07.444Z,0.01
2023-01-22T05:37:09.382Z,-0.01
2023-01-22T05:38:11.278Z,-0.05
2023-01-22T05:39:13.153Z,-0.09
2023-01-22T05:40:15.102Z,-0.21
2023-01-22T05:41:16.916Z,-0.21
2023-01-22T05:42:18.840Z,-0.18
2023-01-22T05:43:20.696Z,-0.15
2023-01-22T05:44:22.568Z,-0.14
2023-01-22T05:45:24.526Z,-0.09
2023-01-22T05:46:26.435Z,-0.08
2023-01-22T05:47:28.305Z,-0.07
2023-01-22T05:48:31.941Z,-0.04
2023-01-22T05:49:33.781Z,-0.03
2023-01-22T05:50:36.926Z,-0.02
2023-01-22T05:51:38.791Z,-0.02
2023-01-22T05:52:40.728Z,-0.02
2023-01-22T05:53:42.522Z,-0.01
2023-01-22T05:54:44.423Z,-0.02
2023-01-22T05:55:46.376Z,-0.02
2023-01-22T05:56:48.245Z,-0.01
2023-01-22T05:57:50.196Z,0.00
2023-01-22T05:58:52.030Z,-0.01
2023-01-22T05:59:53.974Z,-0.04
2023-01-22T06:00:55.766Z,-0.09
2023-01-22T06:01:57.702Z,-0.08
2023-01-22T06:02:59.993Z,-0.06
2023-01-22T06:04:01.837Z,-0.04
2023-01-22T06:05:03.725Z,-0.01
2023-01-22T06:06:06.767Z,0.00
2023-01-22T06:07:08.511Z,0.00
2023-01-22T06:08:10.420Z,-0.01
2023-01-22T06:09:13.144Z,-0.01
2023-01-22T06:10:15.338Z,-0.01
2023-01-22T06:11:17.638Z,-0.01
2023-01-22T06:12:19.520Z,0.00
2023-01-22T06:13:21.332Z,0.04
2023-01-22T06:14:23.223Z,0.05
2023-01-22T06:15:25.071Z,0.04
2023-01-22T06:16:27.108Z,0.03
2023-01-22T06:17:29.031Z,0.00
2023-01-22T06:18:30.953Z,0.01
2023-01-22T06:19:32.730Z,0.02
2023-01-22T06:20:34.670Z,0.01
2023-01-22T06:21:36.597Z,-0.01
2023-01-22T06:22:38.408Z,-0.05
2023-01-22T06:23:40.265Z,-0.07
2023-01-22T06:24:42.135Z,-0.08
2023-01-22T06:25:44.199Z,-0.08
2023-01-22T06:26:46.097Z,-0.05
2023-01-22T06:27:48.034Z,-0.03
2023-01-22T06:28:49.845Z,0.01
2023-01-22T06:29:51.858Z,0.00
2023-01-22T06:30:57.646Z,0.02
2023-01-22T06:31:59.488Z,0.02
2023-01-22T06:33:01.335Z,-0.01
2023-01-22T06:34:05.649Z,-0.01
2023-01-22T06:35:07.610Z,-0.01
2023-01-22T06:36:09.618Z,-0.01
2023-01-22T06:37:11.479Z,0.01
2023-01-22T06:38:13.229Z,0.01
2023-01-22T06:39:15.390Z,0.01
2023-01-22T06:40:17.632Z,0.01
2023-01-22T06:41:19.586Z,-0.01
2023-01-22T06:42:21.413Z,-0.01
2023-01-22T06:43:23.970Z,-0.01
2023-01-22T06:44:25.892Z,0.00
2023-01-22T06:45:27.800Z,-0.01
2023-01-22T06:46:29.689Z,0.00
2023-01-22T06:47:31.537Z,-0.02
2023-01-22T06:48:33.423Z,-0.02
2023-01-22T06:49:35.334Z,-0.03
2023-01-22T06:50:37.127Z,-0.02
2023-01-22T06:51:39.095Z,-0.06
2023-01-22T06:52:40.917Z,-0.10
2023-01-22T06:53:42.892Z,-0.09
2023-01-22T06:54:44.788Z,-0.07
2023-01-22T06:55:46.637Z,-0.06
2023-01-22T06:56:48.421Z,-0.03
2023-01-22T06:57:50.198Z,0.00
2023-01-22T06:58:51.971Z,0.02
2023-01-22T06:59:53.900Z,0.03
2023-01-22T07:00:55.704Z,0.07
2023-01-22T07:01:57.549Z,0.09
2023-01-22T07:02:59.597Z,0.09
2023-01-22T07:04:01.432Z,0.09
2023-01-22T07:05:03.412Z,0.09
2023-01-22T07:06:05.737Z,0.08
2023-01-22T07:07:07.482Z,0.08
2023-01-22T07:08:10.603Z,0.10
2023-01-22T07:09:12.375Z,0.10
2023-01-22T07:10:14.580Z,0.08
2023-01-22T07:11:16.485Z,0.09
2023-01-22T07:12:18.286Z,0.10
2023-01-22T07:13:20.274Z,0.10
2023-01-22T07:14:36.163Z,0.09
2023-01-22T07:15:38.531Z,0.08
2023-01-22T07:16:40.452Z,0.07
2023-01-22T07:17:42.251Z,0.09
2023-01-22T07:18:44.129Z,0.10
2023-01-22T07:19:45.909Z,0.09
2023-01-22T07:20:48.273Z,0.10
2023-01-22T07:21:50.128Z,0.12
2023-01-22T07:22:51.973Z,0.10
2023-01-22T07:23:53.883Z,0.11
2023-01-22T07:24:55.695Z,0.10
2023-01-22T07:25:57.680Z,0.12
2023-01-22T07:26:59.579Z,0.13
2023-01-22T07:28:05.733Z,0.10
2023-01-22T07:29:07.515Z,0.09
2023-01-22T07:30:09.653Z,0.09
2023-01-22T07:31:12.286Z,0.08
2023-01-22T07:32:14.162Z,0.10
2023-01-22T07:33:16.710Z,0.09
2023-01-22T07:34:18.594Z,0.07
2023-01-22T07:35:20.788Z,0.08
2023-01-22T07:36:22.656Z,0.06
2023-01-22T07:37:24.507Z,0.02
2023-01-22T07:38:30.009Z,-0.03
2023-01-22T07:39:31.966Z,-0.06
2023-01-22T07:40:34.242Z,-0.04
2023-01-22T07:41:36.079Z,0.02
2023-01-22T07:42:38.836Z,0.05
2023-01-22T07:43:40.891Z,0.11
2023-01-22T07:44:42.830Z,0.12
2023-01-22T07:45:44.719Z,0.13
2023-01-22T07:46:46.890Z,0.15
2023-01-22T07:47:52.301Z,0.15
2023-01-22T07:48:54.169Z,0.17
2023-01-22T07:49:56.033Z,0.19
2023-01-22T07:51:02.382Z,0.17
2023-01-22T07:52:04.263Z,0.20
2023-01-22T07:53:07.587Z,0.20
2023-01-22T07:54:09.452Z,0.17
2023-01-22T07:55:11.232Z,0.17
2023-01-22T07:56:13.097Z,0.16
2023-01-22T07:57:16.885Z,0.17
2023-01-22T07:58:18.804Z,0.19
2023-01-22T07:59:20.737Z,0.21
2023-01-22T08:00:22.620Z,0.24
2023-01-22T08:01:24.467Z,0.25
2023-01-22T08:02:26.311Z,0.27
2023-01-22T08:03:28.161Z,0.30
2023-01-22T08:04:30.026Z,0.33
2023-01-22T08:05:31.789Z,0.37
2023-01-22T08:06:34.199Z,0.38
2023-01-22T08:07:35.998Z,0.40
2023-01-22T08:08:37.829Z,0.43
2023-01-22T08:09:39.652Z,0.45
2023-01-22T08:10:42.074Z,0.48
2023-01-22T08:11:43.849Z,0.50
2023-01-22T08:12:46.676Z,0.47
2023-01-22T08:13:48.590Z,0.45
2023-01-22T08:14:50.422Z,0.47
2023-01-22T08:15:52.362Z,0.47
2023-01-22T08:16:54.148Z,0.49
2023-01-22T08:17:55.902Z,0.53
2023-01-22T08:18:57.792Z,0.58
2023-01-22T08:19:59.619Z,0.59
2023-01-22T08:21:01.602Z,0.62
2023-01-22T08:22:04.592Z,0.65
2023-01-22T08:23:06.352Z,0.66
2023-01-22T08:24:10.571Z,0.65
2023-01-22T08:25:12.514Z,0.64
2023-01-22T08:26:14.410Z,0.65
2023-01-22T08:27:16.441Z,0.66
2023-01-22T08:28:18.199Z,0.66
2023-01-22T08:29:20.037Z,0.63
2023-01-22T08:30:22.584Z,0.64
2023-01-22T08:31:28.200Z,0.64
2023-01-22T08:32:30.438Z,0.65
2023-01-22T08:33:33.261Z,0.66
2023-01-22T08:34:35.039Z,0.67
2023-01-22T08:35:39.123Z,0.67
2023-01-22T08:36:40.922Z,0.69
2023-01-22T08:37:44.243Z,0.70
2023-01-22T08:38:46.039Z,0.71
2023-01-22T08:39:47.891Z,0.72
2023-01-22T08:40:53.065Z,0.72
2023-01-22T08:41:57.911Z,0.73
2023-01-22T08:42:59.759Z,0.76
2023-01-22T08:44:01.765Z,0.77
2023-01-22T08:45:04.001Z,0.80
2023-01-22T08:46:05.835Z,0.78
2023-01-22T08:47:07.698Z,0.78
2023-01-22T08:48:09.526Z,0.80
2023-01-22T08:49:11.539Z,0.83
2023-01-22T08:50:13.603Z,0.86
2023-01-22T08:51:15.521Z,0.86
2023-01-22T08:52:17.651Z,0.85
2023-01-22T08:53:19.460Z,0.85
2023-01-22T08:54:21.312Z,0.85
2023-01-22T08:55:23.124Z,0.85
2023-01-22T08:56:24.958Z,0.86
2023-01-22T08:57:26.822Z,0.89
2023-01-22T08:58:28.591Z,0.90
2023-01-22T08:59:31.163Z,0.89
2023-01-22T09:00:33.119Z,0.91
2023-01-22T09:01:35.146Z,0.91
2023-01-22T09:02:37.029Z,0.92
2023-01-22T09:03:38.843Z,0.91
2023-01-22T09:04:42.145Z,0.90
2023-01-22T09:05:44.071Z,0.91
2023-01-22T09:06:46.509Z,0.90
2023-01-22T09:07:48.402Z,0.90
2023-01-22T09:08:50.221Z,0.90
2023-01-22T09:09:52.026Z,0.91
2023-01-22T09:10:53.905Z,0.92
2023-01-22T09:11:55.826Z,0.92
2023-01-22T09:13:01.118Z,0.96
2023-01-22T09:14:03.931Z,0.97
2023-01-22T09:15:06.027Z,0.97
2023-01-22T09:16:11.171Z,0.95
2023-01-22T09:17:13.061Z,0.99
2023-01-22T09:18:14.857Z,1.01
2023-01-22T09:19:16.857Z,1.03
2023-01-22T09:20:18.892Z,1.05
2023-01-22T09:21:20.943Z,1.05
2023-01-22T09:22:22.768Z,1.07
2023-01-22T09:23:24.616Z,1.04
2023-01-22T09:24:26.386Z,1.02
2023-01-22T09:25:29.524Z,1.03
2023-01-22T09:26:32.699Z,1.02
2023-01-22T09:27:34.643Z,1.02
2023-01-22T09:28:36.599Z,1.02
2023-01-22T09:29:38.567Z,1.05
2023-01-22T09:30:41.973Z,1.05
2023-01-22T09:31:43.954Z,0.99
2023-01-22T09:32:45.843Z,1.02
2023-01-22T09:33:47.671Z,1.03
2023-01-22T09:34:49.462Z,1.07
2023-01-22T09:35:51.464Z,1.11
2023-01-22T09:36:53.349Z,1.10
2023-01-22T09:37:55.561Z,1.09
2023-01-22T09:38:57.668Z,1.11
2023-01-22T09:39:59.550Z,1.10
2023-01-22T09:41:05.143Z,1.09
2023-01-22T09:42:09.372Z,1.09
2023-01-22T09:43:32.487Z,1.08
2023-01-22T09:44:39.418Z,1.10
2023-01-22T09:45:41.510Z,1.11
2023-01-22T09:46:53.224Z,1.13
2023-01-22T09:47:59.980Z,1.13
2023-01-22T09:49:03.555Z,1.16
2023-01-22T09:50:07.767Z,1.16
2023-01-22T09:51:13.202Z,1.18
2023-01-22T09:52:14.986Z,1.20
2023-01-22T09:53:18.544Z,1.21
2023-01-22T09:54:20.398Z,1.23
2023-01-22T09:55:23.478Z,1.24
2023-01-22T09:56:54.600Z,1.27
2023-01-22T09:57:57.266Z,1.30
2023-01-22T09:59:00.485Z,1.32
2023-01-22T10:00:02.961Z,1.32
2023-01-22T10:01:06.502Z,1.33
2023-01-22T10:02:31.248Z,1.32
2023-01-22T10:03:42.261Z,1.33
2023-01-22T10:04:48.543Z,1.30
2023-01-22T10:05:57.929Z,1.27
2023-01-22T10:07:01.327Z,1.27
2023-01-22T10:08:06.586Z,1.29
2023-01-22T10:09:08.415Z,1.24
2023-01-22T10:10:19.034Z,1.18
2023-01-22T10:11:21.081Z,1.20
2023-01-22T10:12:22.973Z,1.17
2023-01-22T10:13:28.575Z,1.14
2023-01-22T10:14:30.685Z,1.14
2023-01-22T10:15:33.399Z,1.12
2023-01-22T10:16:35.731Z,1.12
2023-01-22T10:17:39.044Z,1.14
2023-01-22T10:19:06.655Z,1.15
2023-01-22T10:20:12.629Z,1.20
2023-01-22T10:21:19.023Z,1.22
2023-01-22T10:22:22.696Z,1.21
2023-01-22T10:23:26.047Z,1.22
2023-01-22T10:24:28.519Z,1.17
2023-01-22T10:25:30.375Z,1.19
2023-01-22T10:26:39.456Z,1.23
2023-01-22T10:27:41.562Z,1.23
2023-01-22T10:28:48.185Z,1.25
2023-01-22T10:29:57.725Z,1.26
2023-01-22T10:30:59.747Z,1.29
2023-01-22T10:32:03.113Z,1.31
2023-01-22T10:33:07.142Z,1.32
2023-01-22T10:34:16.577Z,1.28
2023-01-22T10:35:20.045Z,1.29
2023-01-22T10:36:22.117Z,1.31
2023-01-22T10:37:23.973Z,1.31
2023-01-22T10:38:32.823Z,1.32
2023-01-22T10:39:41.893Z,1.34
2023-01-22T10:40:43.661Z,1.35
2023-01-22T10:41:46.536Z,1.32
2023-01-22T10:42:59.713Z,1.33
2023-01-22T10:44:16.876Z,1.33
2023-01-22T10:45:19.574Z,1.31
2023-01-22T10:46:24.798Z,1.30
2023-01-22T10:47:27.893Z,1.32
2023-01-22T10:48:29.690Z,1.35
2023-01-22T10:49:31.549Z,1.35
2023-01-22T10:50:33.353Z,1.35
2023-01-22T10:51:40.297Z,1.31
2023-01-22T10:52:45.156Z,1.28
2023-01-22T10:53:46.903Z,1.27
2023-01-22T10:54:52.974Z,1.28
2023-01-22T10:55:56.764Z,1.30
2023-01-22T10:57:18.718Z,1.31
2023-01-22T10:58:21.759Z,1.31
2023-01-22T10:59:26.667Z,1.35
2023-01-22T11:00:46.701Z,1.39
2023-01-22T11:02:13.610Z,1.37
2023-01-22T11:03:23.528Z,1.39
2023-01-22T11:04:30.506Z,1.41
2023-01-22T11:05:34.123Z,1.42
2023-01-22T11:06:47.488Z,1.46
2023-01-22T11:07:58.961Z,1.48
2023-01-22T11:09:27.287Z,1.48
2023-01-22T11:10:31.971Z,1.51
2023-01-22T11:11:36.894Z,1.50
2023-01-22T11:12:41.573Z,1.51
2023-01-22T11:13:46.161Z,1.52
2023-01-22T11:14:51.655Z,1.51
2023-01-22T11:16:12.234Z,1.52
2023-01-22T11:17:22.143Z,1.50
2023-01-22T11:18:29.488Z,1.53
2023-01-22T11:19:37.734Z,1.55
2023-01-22T11:20:48.272Z,1.55
2023-01-22T11:21:51.699Z,1.60
2023-01-22T11:23:11.440Z,1.64
2023-01-22T11:24:21.952Z,1.71
2023-01-22T11:25:23.806Z,1.74
2023-01-22T11:26:28.940Z,1.70
2023-01-22T11:27:30.701Z,1.70
2023-01-22T11:28:44.569Z,1.75
2023-01-22T11:29:48.866Z,1.83
2023-01-22T11:30:59.790Z,1.87
2023-01-22T11:32:20.340Z,1.90
2023-01-22T11:33:51.436Z,1.89
2023-01-22T11:34:56.088Z,1.88
2023-01-22T11:36:01.567Z,1.91
2023-01-22T11:37:16.852Z,1.90
2023-01-22T11:38:24.523Z,1.93
2023-01-22T11:39:28.800Z,1.95
2023-01-22T11:40:34.903Z,1.98
2023-01-22T11:41:37.027Z,2.01
2023-01-22T11:42:41.699Z,1.99
2023-01-22T11:44:02.989Z,1.99
2023-01-22T11:45:12.528Z,2.04
2023-01-22T11:46:14.385Z,2.00
2023-01-22T11:47:16.206Z,1.98
2023-01-22T11:48:21.090Z,1.99
2023-01-22T11:49:22.988Z,2.00
2023-01-22T11:50:30.833Z,2.06
2023-01-22T11:52:05.183Z,2.04
2023-01-22T11:53:18.947Z,2.07
2023-01-22T11:54:39.352Z,2.08
2023-01-22T11:55:59.966Z,2.06
2023-01-22T11:57:01.752Z,1.99
2023-01-22T11:58:17.696Z,1.96
2023-01-22T11:59:32.379Z,1.96
2023-01-22T12:00:43.756Z,1.96
2023-01-22T12:01:54.720Z,1.97
2023-01-22T12:03:11.837Z,1.98
2023-01-22T12:04:46.260Z,1.99
2023-01-22T12:05:59.084Z,2.00
2023-01-22T12:07:09.632Z,1.98
2023-01-22T12:08:25.859Z,1.91
2023-01-22T12:09:30.775Z,1.96
2023-01-22T12:10:52.944Z,1.98
2023-01-22T12:12:34.285Z,1.99
2023-01-22T12:13:57.441Z,1.94
2023-01-22T12:15:05.253Z,1.95
2023-01-22T12:16:19.881Z,1.95
2023-01-22T12:17:33.415Z,1.95
2023-01-22T12:18:35.177Z,1.98
2023-01-22T12:19:52.119Z,1.99
2023-01-22T12:20:53.950Z,2.02
2023-01-22T12:21:58.500Z,2.02
2023-01-22T12:23:07.340Z,1.97
2023-01-22T12:24:09.115Z,1.95
2023-01-22T12:25:14.312Z,1.98
2023-01-22T12:26:25.441Z,1.96
2023-01-22T12:27:30.426Z,1.95
2023-01-22T12:28:40.900Z,1.94
2023-01-22T12:29:50.001Z,1.98
2023-01-22T12:31:12.128Z,2.01
2023-01-22T12:32:19.452Z,2.04
2023-01-22T12:33:25.040Z,2.04
2023-01-22T12:34:33.230Z,2.03
2023-01-22T12:35:35.141Z,2.04
2023-01-22T12:36:37.489Z,2.09
2023-01-22T12:38:03.912Z,2.10
2023-01-22T12:39:17.195Z,2.11
2023-01-22T12:40:28.764Z,2.17
2023-01-22T12:41:39.826Z,2.15
2023-01-22T12:42:44.760Z,2.13
2023-01-22T12:43:52.577Z,2.13
2023-01-22T12:45:03.577Z,2.14
2023-01-22T12:46:26.051Z,2.13
2023-01-22T12:47:46.304Z,2.17
2023-01-22T12:48:55.562Z,2.15
2023-01-22T12:49:57.488Z,2.13
2023-01-22T12:50:59.279Z,2.16
2023-01-22T12:52:01.200Z,2.17
2023-01-22T12:53:03.088Z,2.17
2023-01-22T12:54:21.650Z,2.19
2023-01-22T12:55:29.712Z,2.21
2023-01-22T12:56:32.691Z,2.18
2023-01-22T12:57:39.293Z,2.19
2023-01-22T12:58:42.508Z,2.20
2023-01-22T12:59:46.548Z,2.22
2023-01-22T13:00:59.422Z,2.19
2023-01-22T13:02:02.316Z,2.20
2023-01-22T13:03:30.644Z,2.22
2023-01-22T13:04:34.272Z,2.22
2023-01-22T13:05:37.846Z,2.23
2023-01-22T13:06:40.889Z,2.25
2023-01-22T13:07:43.095Z,2.22
2023-01-22T13:08:46.032Z,2.23
2023-01-22T13:09:47.985Z,2.24
2023-01-22T13:11:00.486Z,2.29
2023-01-22T13:12:10.992Z,2.34
2023-01-22T13:13:22.780Z,2.36
2023-01-22T13:14:29.163Z,2.36
2023-01-22T13:15:33.445Z,2.38
2023-01-22T13:16:36.888Z,2.38
2023-01-22T13:17:40.768Z,2.39
2023-01-22T13:18:45.536Z,2.34
2023-01-22T13:19:49.955Z,2.34
2023-01-22T13:21:09.426Z,2.33
2023-01-22T13:22:22.525Z,2.32
2023-01-22T13:23:24.484Z,2.29
2023-01-22T13:24:26.643Z,2.28
2023-01-22T13:25:30.519Z,2.20
2023-01-22T13:26:34.869Z,2.24
2023-01-22T13:27:37.953Z,2.30
2023-01-22T13:28:40.560Z,2.33
2023-01-22T13:29:43.475Z,2.33
2023-01-22T13:30:55.708Z,2.33
2023-01-22T13:32:03.130Z,2.36
2023-01-22T13:33:23.967Z,2.38
2023-01-22T13:34:26.664Z,2.33
2023-01-22T13:35:28.469Z,2.32
2023-01-22T13:36:30.324Z,2.30
2023-01-22T13:37:34.517Z,2.31
2023-01-22T13:38:37.928Z,2.27
2023-01-22T13:39:40.299Z,2.26
2023-01-22T13:40:51.050Z,2.23
2023-01-22T13:41:55.103Z,2.23
2023-01-22T13:42:59.291Z,2.24
2023-01-22T13:44:01.998Z,2.24
2023-01-22T13:45:04.247Z,2.23
2023-01-22T13:46:07.667Z,2.22
2023-01-22T13:47:21.229Z,2.20
2023-01-22T13:48:24.042Z,2.15
2023-01-22T13:49:26.049Z,2.14
2023-01-22T13:50:32.698Z,2.16
2023-01-22T13:51:35.704Z,2.18
2023-01-22T13:52:38.958Z,2.15
2023-01-22T13:53:44.167Z,2.12
2023-01-22T13:54:49.869Z,2.15
2023-01-22T13:55:52.207Z,2.17
2023-01-22T13:56:54.067Z,2.17
2023-01-22T13:57:57.545Z,2.18
2023-01-22T13:59:18.410Z,2.18
2023-01-22T14:00:31.664Z,2.18
2023-01-22T14:01:34.585Z,2.18
2023-01-22T14:02:37.097Z,2.18
2023-01-22T14:03:40.068Z,2.20